Time;durP1;ratioP1;P1;durP2;ratioP2;P2;SDS_P1;SDS_P2;PMS_P1;PMS_P2;Temp;Humidity;BMP_temperature;BMP_pressure;BME280_temperature;BME280_humidity;BME280_pressure;Samples;Min_cycle;Max_cycle;Signal;HPM_P1;HPM_P2
2022/03/10 00:01:29;;;;;;;10.77;6.03;;;;;;;19.22;26.91;102191.31;7313726;19;129245;-52
2022/03/10 00:03:56;;;;;;;9.45;5.57;;;;;;;19.21;27.09;102185.97;7312325;19;130691;-51
2022/03/10 00:06:23;;;;;;;8.48;6.10;;;;;;;19.20;27.16;102189.81;7312399;19;130533;-54
2022/03/10 00:08:49;;;;;;;11.25;6.22;;;;;;;19.17;27.31;102196.63;7313169;19;130077;-51
2022/03/10 00:11:16;;;;;;;8.23;5.85;;;;;;;19.15;27.24;102196.00;7312968;19;129011;-51
2022/03/10 00:13:43;;;;;;;6.88;5.65;;;;;;;19.15;26.91;102190.44;7313100;19;130460;-50
2022/03/10 00:16:10;;;;;;;8.63;6.32;;;;;;;19.14;27.24;102199.00;7312258;19;129571;-50
2022/03/10 00:18:37;;;;;;;7.55;5.65;;;;;;;19.12;27.32;102196.47;7312438;19;128927;-54
2022/03/10 00:21:03;;;;;;;8.07;5.43;;;;;;;19.11;26.83;102196.66;7312592;19;129090;-50
2022/03/10 00:23:30;;;;;;;7.93;5.97;;;;;;;19.11;27.06;102196.66;7312891;19;130479;-53
2022/03/10 00:25:57;;;;;;;12.18;6.00;;;;;;;19.08;26.88;102190.47;7312373;19;129600;-56
2022/03/10 00:28:24;;;;;;;9.57;6.70;;;;;;;19.06;27.02;102192.63;7310281;19;129359;-53
2022/03/10 00:30:51;;;;;;;9.75;6.00;;;;;;;19.05;26.94;102193.69;7312204;19;129116;-51
2022/03/10 00:33:18;;;;;;;8.00;6.32;;;;;;;19.05;26.95;102182.59;7312283;19;131133;-53
2022/03/10 00:35:47;;;;;;;7.72;5.75;;;;;;;19.04;27.21;102186.44;7311204;19;129422;-54
2022/03/10 00:38:14;;;;;;;7.80;5.80;;;;;;;19.03;26.84;102190.28;7312702;19;129406;-51
2022/03/10 00:40:40;;;;;;;11.20;5.97;;;;;;;19.02;27.15;102188.59;7308361;19;129270;-49
2022/03/10 00:43:14;;;;;;;11.18;6.90;;;;;;;19.01;26.87;102191.59;7311403;19;129591;-56
2022/03/10 00:45:41;;;;;;;9.20;6.40;;;;;;;18.98;26.95;102184.53;7310482;19;130310;-51
2022/03/10 00:48:09;;;;;;;8.65;6.47;;;;;;;18.97;27.04;102193.91;7308652;19;129376;-50
2022/03/10 00:50:36;;;;;;;8.95;5.60;;;;;;;18.97;26.76;102190.31;7310781;19;129142;-51
2022/03/10 00:53:05;;;;;;;8.95;5.65;;;;;;;18.94;27.17;102191.59;7310217;19;129483;-51
2022/03/10 00:55:32;;;;;;;9.68;6.38;;;;;;;18.94;26.80;102197.16;7310500;19;130116;-54
2022/03/10 00:57:59;;;;;;;6.95;6.10;;;;;;;18.94;26.75;102185.19;7311937;19;128876;-52
2022/03/10 01:00:28;;;;;;;10.02;6.90;;;;;;;18.91;27.16;102194.81;7310759;19;128928;-50
2022/03/10 01:02:56;;;;;;;9.30;6.25;;;;;;;18.90;26.79;102196.72;7308641;19;130097;-51
2022/03/10 01:05:23;;;;;;;8.88;6.95;;;;;;;18.90;27.12;102190.31;7308790;19;129484;-50
2022/03/10 01:07:51;;;;;;;7.32;6.38;;;;;;;18.89;27.06;102195.00;7309864;19;129183;-51
2022/03/10 01:10:18;;;;;;;9.88;7.05;;;;;;;18.88;27.04;102189.69;7309778;19;129032;-52
2022/03/10 01:12:45;;;;;;;9.95;7.30;;;;;;;18.87;26.67;102190.75;7311569;19;129579;-49
2022/03/10 01:15:14;;;;;;;9.40;6.75;;;;;;;18.85;27.05;102188.22;7310738;19;129800;-51
2022/03/10 01:17:40;;;;;;;10.90;7.03;;;;;;;18.85;26.70;102187.34;7310694;19;128793;-51
2022/03/10 01:20:08;;;;;;;10.55;6.40;;;;;;;18.83;27.08;102190.34;7308876;19;129691;-54
2022/03/10 01:22:35;;;;;;;10.25;6.47;;;;;;;18.84;26.75;102196.72;7311831;19;129540;-53
2022/03/10 01:25:03;;;;;;;8.82;7.15;;;;;;;18.82;27.04;102196.94;7310868;19;129781;-50
2022/03/10 01:27:30;;;;;;;9.68;6.63;;;;;;;18.81;26.71;102191.63;7310578;19;129068;-51
2022/03/10 01:29:57;;;;;;;11.02;7.20;;;;;;;18.80;26.90;102188.00;7310905;19;129474;-54
2022/03/10 01:32:25;;;;;;;7.85;6.13;;;;;;;18.77;26.75;102180.97;7310993;19;129956;-51
2022/03/10 01:34:52;;;;;;;8.30;6.75;;;;;;;18.77;27.08;102177.31;7311198;19;129649;-52
2022/03/10 01:37:20;;;;;;;10.00;6.75;;;;;;;18.75;26.84;102180.31;7309361;19;128807;-51
2022/03/10 01:39:47;;;;;;;9.68;7.18;;;;;;;18.74;26.78;102170.31;7309276;19;129216;-55
2022/03/10 01:42:13;;;;;;;9.38;6.75;;;;;;;18.73;26.80;102179.69;7309462;19;130205;-52
2022/03/10 01:44:40;;;;;;;9.60;6.88;;;;;;;18.72;26.57;102172.44;7310169;19;129866;-52
2022/03/10 01:47:07;;;;;;;8.63;6.90;;;;;;;18.72;26.66;102172.44;7307994;19;129639;-51
2022/03/10 01:49:34;;;;;;;8.85;6.75;;;;;;;18.70;26.60;102174.59;7307826;19;128839;-52
2022/03/10 01:52:02;;;;;;;9.82;6.72;;;;;;;18.70;26.96;102174.59;7313063;19;130511;-50
2022/03/10 01:54:30;;;;;;;10.95;6.60;;;;;;;18.69;27.06;102172.03;7317267;19;130065;-50
2022/03/10 01:56:58;;;;;;;7.82;6.05;;;;;;;18.70;26.73;102168.19;7317889;19;129874;-50
2022/03/10 01:59:26;;;;;;;8.82;6.10;;;;;;;18.67;27.01;102169.47;7314920;19;131822;-54
2022/03/10 02:01:53;;;;;;;6.90;6.20;;;;;;;18.67;27.05;102158.41;7316270;19;130030;-51
2022/03/10 02:04:21;;;;;;;11.13;6.70;;;;;;;18.67;26.75;102171.38;7316196;19;130504;-49
2022/03/10 02:06:48;;;;;;;10.70;6.82;;;;;;;18.65;26.69;102166.06;7317122;19;129234;-50
2022/03/10 02:12:01;;;;;;;10.02;6.60;;;;;;;18.62;26.76;102149.88;7316748;19;129377;-50
2022/03/10 02:17:22;;;;;;;9.60;6.45;;;;;;;18.60;27.03;102157.53;7315485;19;130190;-48
2022/03/10 02:19:55;;;;;;;9.57;6.30;;;;;;;18.60;26.63;102163.09;7315851;19;129109;-50
2022/03/10 02:22:23;;;;;;;8.93;6.47;;;;;;;18.58;26.56;102159.69;7314814;19;129721;-51
2022/03/10 02:24:51;;;;;;;9.82;6.43;;;;;;;18.58;26.90;102159.69;7315907;19;129799;-48
2022/03/10 02:27:20;;;;;;;8.00;5.68;;;;;;;18.57;27.11;102163.53;7316102;19;129329;-53
2022/03/10 02:29:52;;;;;;;8.40;5.50;;;;;;;18.57;26.82;102158.00;7315359;19;130167;-52
2022/03/10 02:32:20;;;;;;;8.93;5.88;;;;;;;18.58;27.03;102159.69;7314719;19;129595;-50
2022/03/10 02:34:48;;;;;;;9.00;6.53;;;;;;;18.56;26.98;102161.81;7316176;19;130495;-52
2022/03/10 02:37:18;;;;;;;6.93;5.78;;;;;;;18.56;26.94;102156.28;7314238;19;129637;-52
2022/03/10 02:39:46;;;;;;;7.97;6.28;;;;;;;18.53;26.96;102154.78;7315736;19;128993;-51
2022/03/10 02:42:14;;;;;;;8.60;6.47;;;;;;;18.53;27.04;102163.09;7316115;19;131435;-51
2022/03/10 02:44:46;;;;;;;11.15;6.07;;;;;;;18.53;26.64;102162.25;7316460;19;129575;-50
2022/03/10 02:47:15;;;;;;;8.10;6.22;;;;;;;18.52;26.85;102157.78;7314842;19;128843;-51
2022/03/10 02:49:42;;;;;;;7.97;5.93;;;;;;;18.50;26.86;102152.47;7314578;19;129215;-51
2022/03/10 02:52:09;;;;;;;8.95;6.25;;;;;;;18.50;26.60;102158.00;7313779;19;129547;-49
2022/03/10 02:54:43;;;;;;;9.32;6.53;;;;;;;18.49;26.59;102153.53;7312605;19;130008;-52
2022/03/10 02:57:11;;;;;;;9.57;6.20;;;;;;;18.48;26.96;102159.25;7314360;19;128888;-51
2022/03/10 02:59:37;;;;;;;8.10;5.88;;;;;;;18.48;27.09;102153.72;7314927;19;129700;-52
2022/03/10 03:02:05;;;;;;;8.30;6.00;;;;;;;18.47;26.75;102141.81;7314621;19;130819;-51
2022/03/10 03:04:32;;;;;;;8.25;5.93;;;;;;;18.45;26.68;102153.13;7311325;19;130010;-52
2022/03/10 03:06:59;;;;;;;6.75;4.90;;;;;;;18.46;26.76;102152.00;7315062;19;129326;-52
2022/03/10 03:09:26;;;;;;;6.72;4.90;;;;;;;18.45;26.90;102160.56;7312039;19;129190;-50
2022/03/10 03:11:53;;;;;;;7.80;5.93;;;;;;;18.44;26.97;102159.72;7314176;19;129034;-49
2022/03/10 03:14:23;;;;;;;8.20;5.90;;;;;;;18.44;26.94;102153.31;7314689;19;129907;-50
2022/03/10 03:16:51;;;;;;;12.02;6.18;;;;;;;18.43;27.06;102160.78;7310682;19;128853;-50
2022/03/10 03:19:18;;;;;;;6.85;5.63;;;;;;;18.43;26.90;102157.13;7314987;19;128856;-50
2022/03/10 03:21:45;;;;;;;8.02;6.20;;;;;;;18.42;26.64;102155.44;7313967;19;129934;-52
2022/03/10 03:24:12;;;;;;;10.07;6.30;;;;;;;18.41;26.97;102159.28;7315004;19;130292;-50
2022/03/10 03:26:39;;;;;;;7.57;5.80;;;;;;;18.40;26.82;102158.44;7314881;19;129284;-53
2022/03/10 03:29:06;;;;;;;8.32;5.38;;;;;;;18.37;27.03;102158.81;7312612;19;131378;-50
2022/03/10 03:31:32;;;;;;;10.35;5.93;;;;;;;18.39;26.64;102165.03;7313216;19;130023;-52
2022/03/10 03:33:59;;;;;;;7.05;5.65;;;;;;;18.37;27.03;102158.81;7313069;19;130400;-48
2022/03/10 03:36:26;;;;;;;7.68;5.75;;;;;;;18.38;27.07;102168.00;7313507;19;129618;-52
2022/03/10 03:38:53;;;;;;;8.60;5.45;;;;;;;18.36;27.00;102162.66;7310972;19;129029;-52
2022/03/10 03:41:19;;;;;;;6.72;5.57;;;;;;;18.35;26.93;102166.50;7313760;19;130493;-50
2022/03/10 03:43:46;;;;;;;7.10;5.45;;;;;;;18.35;26.66;102172.03;7310873;19;129898;-50
2022/03/10 03:46:13;;;;;;;10.77;5.93;;;;;;;18.34;26.65;102159.25;7311724;19;129326;-51
2022/03/10 03:48:40;;;;;;;7.45;5.43;;;;;;;18.33;27.13;102167.78;7310387;19;128974;-51
2022/03/10 03:51:08;;;;;;;7.95;5.35;;;;;;;18.32;26.72;102169.72;7310892;19;130924;-52
2022/03/10 03:53:37;;;;;;;6.97;5.45;;;;;;;18.32;27.00;102169.72;7311693;19;128883;-52
2022/03/10 03:56:04;;;;;;;7.63;5.10;;;;;;;18.31;27.00;102174.38;7314142;19;128955;-48
2022/03/10 03:58:31;;;;;;;8.27;5.63;;;;;;;18.31;26.86;102170.78;7313612;19;130122;-54
2022/03/10 04:00:58;;;;;;;7.35;5.35;;;;;;;18.29;26.74;102183.97;7312764;19;130530;-50
2022/03/10 04:03:25;;;;;;;9.23;6.40;;;;;;;18.28;26.75;102176.72;7313508;19;129940;-51
2022/03/10 04:05:52;;;;;;;7.07;5.18;;;;;;;18.28;26.97;102183.13;7309467;19;129542;-52
2022/03/10 04:08:21;;;;;;;6.78;5.30;;;;;;;18.28;26.75;102183.13;7306779;19;130101;-51
2022/03/10 04:10:48;;;;;;;6.82;5.03;;;;;;;18.26;26.68;102181.63;7310748;19;131402;-49
2022/03/10 04:13:15;;;;;;;6.70;5.15;;;;;;;18.25;27.04;102182.69;7312587;19;130402;-52
2022/03/10 04:15:41;;;;;;;9.02;5.78;;;;;;;18.25;26.89;102182.69;7312561;19;129017;-49
2022/03/10 04:18:08;;;;;;;7.10;5.43;;;;;;;18.25;27.03;102199.31;7311621;19;129393;-51
2022/03/10 04:20:35;;;;;;;7.90;5.38;;;;;;;18.24;27.04;102203.16;7312256;19;129671;-50
2022/03/10 04:23:02;;;;;;;6.57;5.40;;;;;;;18.22;26.71;102197.81;7312679;19;130097;-49
2022/03/10 04:25:28;;;;;;;7.70;5.45;;;;;;;18.22;27.11;102202.50;7313185;19;129325;-51
2022/03/10 04:27:56;;;;;;;8.55;5.10;;;;;;;18.22;26.88;102199.72;7311989;19;129122;-50
2022/03/10 04:30:23;;;;;;;9.85;5.25;;;;;;;18.22;26.96;102208.91;7311695;19;130581;-55
2022/03/10 04:32:50;;;;;;;6.82;5.47;;;;;;;18.20;26.86;102196.34;7311435;19;130110;-51
2022/03/10 04:35:19;;;;;;;7.15;5.85;;;;;;;18.20;26.90;102202.72;7311289;19;130621;-53
2022/03/10 04:37:50;;;;;;;8.70;5.95;;;;;;;18.20;26.60;102210.19;7311898;19;128869;-50
2022/03/10 04:40:18;;;;;;;9.25;5.95;;;;;;;18.18;26.65;102193.78;7312239;19;130456;-52
2022/03/10 04:42:45;;;;;;;7.03;5.82;;;;;;;18.18;26.97;102192.94;7311273;19;129486;-50
2022/03/10 04:45:12;;;;;;;7.80;5.22;;;;;;;18.18;26.65;102201.25;7311593;19;129515;-49
2022/03/10 04:47:40;;;;;;;6.47;5.05;;;;;;;18.16;26.90;102201.44;7308355;19;129837;-49
2022/03/10 04:50:09;;;;;;;9.40;5.50;;;;;;;18.16;26.69;102201.44;7308152;19;130093;-52
2022/03/10 04:52:36;;;;;;;6.07;5.07;;;;;;;18.19;26.96;102194.63;7310940;19;129542;-51
2022/03/10 04:55:04;;;;;;;9.38;5.82;;;;;;;18.22;27.12;102205.28;7312187;19;130116;-50
2022/03/10 04:57:31;;;;;;;6.80;5.15;;;;;;;18.32;26.93;102200.19;7310134;19;128827;-49
2022/03/10 04:59:57;;;;;;;8.00;5.03;;;;;;;18.48;26.89;102203.59;7311338;19;129536;-51
2022/03/10 05:02:24;;;;;;;7.20;4.68;;;;;;;18.68;26.53;102198.91;7311104;19;129520;-52
2022/03/10 05:04:51;;;;;;;9.85;4.97;;;;;;;18.94;26.35;102186.06;7309920;19;129263;-52
2022/03/10 05:07:18;;;;;;;6.32;4.68;;;;;;;19.24;25.89;102196.63;7310660;19;130272;-53
2022/03/10 05:09:44;;;;;;;6.40;4.80;;;;;;;19.55;25.78;102192.25;7309745;19;131105;-50
2022/03/10 05:12:11;;;;;;;7.50;5.00;;;;;;;19.88;25.82;102199.50;7310140;19;129876;-55
2022/03/10 05:14:38;;;;;;;5.20;4.45;;;;;;;20.20;25.01;102198.66;7311213;19;129972;-51
2022/03/10 05:17:04;;;;;;;6.50;4.53;;;;;;;20.44;25.18;102205.28;7310604;19;128960;-50
2022/03/10 05:19:34;;;;;;;6.63;4.68;;;;;;;20.66;24.86;102202.94;7311210;19;129465;-52
2022/03/10 05:22:01;;;;;;;5.60;4.50;;;;;;;20.80;24.70;102203.69;7309446;19;129893;-58
2022/03/10 05:24:28;;;;;;;6.57;4.80;;;;;;;20.89;24.41;102202.31;7311335;19;129636;-51
2022/03/10 05:26:54;;;;;;;6.13;4.63;;;;;;;20.96;24.32;102202.25;7314980;19;128828;-49
2022/03/10 05:29:21;;;;;;;5.38;4.47;;;;;;;20.98;24.00;102204.78;7315973;19;129581;-49
2022/03/10 05:31:49;;;;;;;6.43;4.95;;;;;;;20.97;24.46;102197.53;7318878;19;129864;-53
2022/03/10 05:34:17;;;;;;;5.35;4.40;;;;;;;20.93;24.50;102202.72;7317917;19;132134;-51
2022/03/10 05:36:44;;;;;;;6.00;4.63;;;;;;;20.86;24.26;102202.78;7317845;19;129017;-50
2022/03/10 05:39:10;;;;;;;8.27;4.82;;;;;;;20.82;24.01;102209.03;7316788;19;130648;-53
2022/03/10 05:41:40;;;;;;;5.25;4.40;;;;;;;20.74;24.63;102201.81;7317688;19;129409;-51
2022/03/10 05:44:07;;;;;;;8.48;4.85;;;;;;;20.66;24.20;102204.91;7315903;19;129397;-53
2022/03/10 05:46:34;;;;;;;5.47;4.63;;;;;;;20.59;24.82;102202.19;7317637;19;129589;-49
2022/03/10 05:49:00;;;;;;;7.15;4.70;;;;;;;20.51;24.54;102197.75;7314542;19;131222;-50
2022/03/10 05:51:27;;;;;;;7.75;4.60;;;;;;;20.44;24.96;102200.59;7317006;19;131974;-51
2022/03/10 05:53:54;;;;;;;7.07;5.03;;;;;;;20.37;24.57;102193.41;7317538;19;129169;-53
2022/03/10 05:56:20;;;;;;;5.88;4.60;;;;;;;20.29;24.82;102191.75;7317338;19;129575;-53
2022/03/10 05:58:47;;;;;;;6.13;4.70;;;;;;;20.22;25.03;102191.81;7316128;19;129732;-52
2022/03/10 06:01:14;;;;;;;5.93;4.63;;;;;;;20.14;25.12;102183.75;7316295;19;129896;-53
2022/03/10 06:03:42;;;;;;;7.10;4.90;;;;;;;20.08;25.16;102187.41;7316967;19;129879;-48
2022/03/10 06:06:11;;;;;;;5.35;4.30;;;;;;;20.02;24.84;102185.56;7314170;19;128993;-57
2022/03/10 06:08:38;;;;;;;7.10;4.40;;;;;;;19.94;24.96;102183.88;7316025;19;130559;-54
2022/03/10 06:11:07;;;;;;;5.93;4.80;;;;;;;19.88;25.27;102187.56;7316936;19;129508;-56
2022/03/10 06:13:34;;;;;;;7.35;5.20;;;;;;;19.81;25.35;102188.44;7317155;19;128973;-57
2022/03/10 06:16:01;;;;;;;6.55;5.13;;;;;;;19.76;25.42;102192.97;7316891;19;129505;-55
2022/03/10 06:18:28;;;;;;;6.13;4.78;;;;;;;19.73;25.17;102198.97;7316000;19;129848;-54
2022/03/10 06:20:54;;;;;;;5.80;4.70;;;;;;;19.65;25.04;102192.59;7316777;19;131480;-54
2022/03/10 06:23:21;;;;;;;7.45;5.00;;;;;;;19.60;25.35;102189.63;7316408;19;129719;-57
2022/03/10 06:25:48;;;;;;;9.73;5.55;;;;;;;19.56;25.61;102193.94;7316981;19;128918;-59
2022/03/10 06:28:15;;;;;;;7.00;5.35;;;;;;;19.52;25.40;102193.50;7316302;19;130566;-59
2022/03/10 06:30:42;;;;;;;8.07;5.18;;;;;;;19.49;25.34;102193.97;7312874;19;129483;-52
2022/03/10 06:33:10;;;;;;;7.13;5.03;;;;;;;19.48;25.45;102202.50;7315416;19;129345;-55
2022/03/10 06:35:37;;;;;;;10.75;5.63;;;;;;;19.47;25.52;102201.66;7314725;19;129058;-51
2022/03/10 06:38:04;;;;;;;9.10;5.38;;;;;;;19.49;25.31;102209.75;7313292;19;130621;-55
2022/03/10 06:40:30;;;;;;;7.03;5.05;;;;;;;19.51;25.69;102207.63;7313466;19;129271;-56
2022/03/10 06:42:57;;;;;;;6.25;4.53;;;;;;;19.55;25.65;102206.13;7316444;19;128993;-56
2022/03/10 06:45:24;;;;;;;6.15;4.70;;;;;;;19.63;25.48;102207.78;7315751;19;128858;-56
2022/03/10 06:47:51;;;;;;;6.30;4.70;;;;;;;19.73;25.56;102212.84;7314731;19;131344;-54
2022/03/10 06:50:18;;;;;;;6.85;4.70;;;;;;;19.84;25.16;102209.34;7313454;19;130484;-55
2022/03/10 06:52:44;;;;;;;8.00;4.82;;;;;;;19.99;25.38;102214.63;7316143;19;130161;-54
2022/03/10 06:55:11;;;;;;;7.25;5.00;;;;;;;20.13;25.11;102212.63;7316348;19;129583;-53
2022/03/10 06:57:38;;;;;;;7.63;4.93;;;;;;;20.26;25.21;102209.72;7316214;19;129876;-54
2022/03/10 07:00:07;;;;;;;9.57;4.70;;;;;;;20.40;24.71;102210.47;7313737;19;130425;-55
2022/03/10 07:02:34;;;;;;;6.47;4.57;;;;;;;20.53;24.52;102201.16;7316630;19;129431;-54
2022/03/10 07:05:02;;;;;;;7.75;4.20;;;;;;;20.66;24.74;102207.69;7314774;19;129063;-51
2022/03/10 07:07:28;;;;;;;8.25;4.40;;;;;;;20.75;24.83;102218.28;7316344;19;130750;-55
2022/03/10 07:09:55;;;;;;;5.95;4.20;;;;;;;20.84;24.38;102221.63;7315435;19;130521;-53
2022/03/10 07:12:22;;;;;;;5.53;4.30;;;;;;;20.90;24.31;102215.16;7316415;19;130493;-57
2022/03/10 07:14:49;;;;;;;6.57;4.45;;;;;;;20.96;24.69;102224.50;7315768;19;129308;-57
2022/03/10 07:17:15;;;;;;;8.02;4.40;;;;;;;20.98;24.16;102227.06;7316813;19;131185;-56
2022/03/10 07:19:42;;;;;;;6.18;4.10;;;;;;;20.99;24.45;102231.53;7316148;19;129897;-56
2022/03/10 07:22:09;;;;;;;5.65;4.38;;;;;;;20.99;24.43;102228.75;7316092;19;131038;-54
2022/03/10 07:24:36;;;;;;;5.90;4.35;;;;;;;20.99;24.43;102231.53;7315566;19;129449;-56
2022/03/10 07:27:03;;;;;;;5.95;4.40;;;;;;;20.98;24.24;102235.41;7315626;19;129695;-56
2022/03/10 07:29:29;;;;;;;5.82;4.20;;;;;;;20.95;24.63;102230.28;7314309;19;131624;-58
2022/03/10 07:31:56;;;;;;;6.32;4.40;;;;;;;20.92;24.75;102233.56;7313911;19;128908;-58
2022/03/10 07:34:23;;;;;;;9.73;4.38;;;;;;;20.87;24.41;102232.31;7315489;19;129105;-57
2022/03/10 07:36:50;;;;;;;10.57;4.25;;;;;;;20.84;24.86;102226.34;7312348;19;129929;-55
2022/03/10 07:39:17;;;;;;;7.63;4.40;;;;;;;20.80;24.47;102228.72;7314693;19;130624;-59
2022/03/10 07:41:44;;;;;;;9.05;4.65;;;;;;;20.77;24.91;102231.97;7314588;19;129441;-59
2022/03/10 07:44:11;;;;;;;7.53;4.30;;;;;;;20.75;24.82;102231.31;7313556;19;129066;-60
2022/03/10 07:46:37;;;;;;;6.47;4.60;;;;;;;20.71;24.79;102232.84;7314211;19;129548;-58
2022/03/10 07:49:04;;;;;;;9.13;4.70;;;;;;;20.69;24.87;102235.00;7311368;19;129548;-59
2022/03/10 07:51:31;;;;;;;7.47;4.38;;;;;;;20.67;24.95;102231.63;7314007;19;128966;-57
2022/03/10 07:53:58;;;;;;;6.07;4.50;;;;;;;20.64;24.75;102232.91;7313836;19;128870;-59
2022/03/10 07:56:25;;;;;;;6.30;4.78;;;;;;;20.62;24.87;102228.66;7314206;19;129697;-59
2022/03/10 07:58:51;;;;;;;5.97;4.22;;;;;;;20.60;24.92;102232.53;7313698;19;130287;-59
2022/03/10 08:01:18;;;;;;;7.78;4.50;;;;;;;20.64;24.76;102232.91;7313924;19;128859;-60
2022/03/10 08:03:48;;;;;;;7.35;4.53;;;;;;;20.78;25.17;102233.69;7314547;19;128969;-59
2022/03/10 08:06:16;;;;;;;8.13;4.57;;;;;;;21.15;24.80;102235.63;7311044;19;129622;-60
2022/03/10 08:08:44;;;;;;;6.35;4.70;;;;;;;22.02;23.82;102236.44;7313214;19;130545;-59
2022/03/10 08:11:11;;;;;;;5.35;4.57;;;;;;;23.82;22.12;102239.78;7311798;19;128894;-60
2022/03/10 08:13:38;;;;;;;8.27;4.80;;;;;;;25.20;20.87;102236.72;7313870;19;129211;-60
2022/03/10 08:16:05;;;;;;;9.55;4.70;;;;;;;26.39;19.42;102238.88;7314677;19;130614;-60
2022/03/10 08:18:32;;;;;;;7.47;4.55;;;;;;;27.29;18.85;102242.84;7313490;19;129648;-60
2022/03/10 08:21:04;;;;;;;5.07;4.30;;;;;;;28.05;17.94;102234.09;7313389;19;129755;-60
2022/03/10 08:23:31;;;;;;;4.60;3.95;;;;;;;28.64;17.31;102235.47;7313872;19;129387;-60
2022/03/10 08:25:58;;;;;;;6.32;4.00;;;;;;;29.14;17.05;102238.50;7312878;19;129607;-60
2022/03/10 08:28:26;;;;;;;6.82;4.50;;;;;;;29.55;16.23;102242.22;7311040;19;129543;-60
2022/03/10 08:30:53;;;;;;;8.45;4.22;;;;;;;29.89;16.04;102242.34;7311760;19;129431;-60
2022/03/10 08:33:20;;;;;;;6.72;4.60;;;;;;;30.17;15.63;102233.41;7313013;19;129229;-60
2022/03/10 08:35:47;;;;;;;7.07;5.07;;;;;;;30.40;15.57;102239.44;7312989;19;131248;-62
2022/03/10 08:38:15;;;;;;;6.07;4.60;;;;;;;30.44;15.38;102235.72;7312835;19;130736;-60
2022/03/10 08:40:42;;;;;;;5.15;4.18;;;;;;;30.15;15.58;102232.88;7310375;19;129477;-61
2022/03/10 08:43:12;;;;;;;5.90;4.35;;;;;;;29.34;16.10;102231.06;7313366;19;129755;-60
2022/03/10 08:45:39;;;;;;;5.07;4.45;;;;;;;27.83;16.70;102235.13;7312642;19;129629;-60
2022/03/10 08:48:06;;;;;;;5.60;4.40;;;;;;;26.78;18.06;102234.97;7312507;19;129233;-60
2022/03/10 08:50:33;;;;;;;7.65;4.65;;;;;;;25.94;18.47;102228.91;7311505;19;129325;-60
2022/03/10 08:53:00;;;;;;;5.03;4.47;;;;;;;25.25;18.97;102230.34;7313504;19;128909;-60
2022/03/10 08:55:27;;;;;;;9.15;4.25;;;;;;;24.62;19.58;102222.13;7313126;19;129515;-60
2022/03/10 08:57:55;;;;;;;6.45;4.53;;;;;;;24.11;20.19;102225.78;7313092;19;130514;-60
2022/03/10 09:00:22;;;;;;;8.57;4.70;;;;;;;23.64;20.33;102219.31;7313472;19;129535;-60
2022/03/10 09:02:54;;;;;;;6.07;5.10;;;;;;;23.26;21.21;102223.56;7319354;19;129111;-60
2022/03/10 09:05:23;;;;;;;6.13;4.88;;;;;;;22.95;21.07;102225.69;7318362;19;130379;-60
2022/03/10 09:07:50;;;;;;;6.18;5.07;;;;;;;22.67;21.78;102221.66;7319479;19;129535;-60
2022/03/10 09:10:17;;;;;;;6.45;4.78;;;;;;;22.42;21.90;102219.94;7319184;19;129488;-60
2022/03/10 09:12:44;;;;;;;5.68;4.30;;;;;;;22.20;22.41;102216.00;7319999;19;128899;-60
2022/03/10 09:15:16;;;;;;;6.00;4.30;;;;;;;22.01;22.15;102213.31;7319916;19;130337;-61
2022/03/10 09:17:44;;;;;;;7.45;4.55;;;;;;;21.85;22.63;102205.63;7318860;19;129513;-60
2022/03/10 09:20:13;;;;;;;5.70;4.80;;;;;;;21.70;22.60;102212.47;7319446;19;128763;-60
2022/03/10 09:22:41;;;;;;;7.35;5.15;;;;;;;21.57;22.96;102198.72;7319345;19;129090;-60
2022/03/10 09:25:09;;;;;;;6.82;4.75;;;;;;;21.45;23.03;102201.44;7319567;19;130655;-60
2022/03/10 09:27:36;;;;;;;6.53;4.95;;;;;;;21.33;23.54;102201.38;7318303;19;131462;-60
2022/03/10 09:30:04;;;;;;;6.15;4.85;;;;;;;21.23;23.21;102196.38;7318097;19;129675;-60
2022/03/10 09:32:39;;;;;;;6.80;4.50;;;;;;;21.12;23.62;102195.22;7319445;19;129203;-59
2022/03/10 09:35:08;;;;;;;6.20;4.63;;;;;;;21.02;23.88;102194.91;7319689;19;129972;-60
2022/03/10 09:37:35;;;;;;;10.23;5.03;;;;;;;20.94;23.61;102193.28;7318919;19;129394;-59
2022/03/10 09:40:03;;;;;;;7.60;5.30;;;;;;;20.86;23.98;102186.09;7318065;19;128970;-60
2022/03/10 09:42:32;;;;;;;6.97;4.80;;;;;;;20.80;23.95;102181.44;7318192;19;129902;-59
2022/03/10 09:45:02;;;;;;;7.50;4.82;;;;;;;20.72;23.97;102179.81;7316865;19;130361;-60
2022/03/10 09:47:30;;;;;;;6.07;4.38;;;;;;;20.67;24.38;102176.00;7317071;19;129540;-60
2022/03/10 09:49:58;;;;;;;6.25;4.72;;;;;;;20.59;24.12;102175.22;7318512;19;129185;-60
2022/03/10 09:52:25;;;;;;;6.60;4.82;;;;;;;20.54;24.58;102177.84;7317851;19;128933;-60
2022/03/10 09:54:51;;;;;;;5.50;4.78;;;;;;;20.48;24.21;102175.97;7318347;19;130561;-59
2022/03/10 09:57:22;;;;;;;6.53;4.75;;;;;;;20.43;24.27;102175.81;7318334;19;129795;-60
2022/03/10 09:59:51;;;;;;;5.57;4.85;;;;;;;20.39;24.60;102169.00;7317803;19;129827;-60
2022/03/10 10:02:18;;;;;;;6.25;5.00;;;;;;;20.35;24.75;102173.31;7318154;19;129636;-60
2022/03/10 10:04:48;;;;;;;7.32;5.43;;;;;;;20.29;24.79;102170.38;7317318;19;130002;-60
2022/03/10 10:07:19;;;;;;;8.27;5.53;;;;;;;20.23;24.52;102159.31;7315453;19;129627;-59
2022/03/10 10:09:55;;;;;;;5.45;4.78;;;;;;;20.19;25.03;102158.91;7318263;19;129504;-59
2022/03/10 10:12:30;;;;;;;5.83;4.87;;;;;;;20.14;25.07;102161.53;7316334;19;129525;-59
2022/03/10 10:14:58;;;;;;;5.82;4.80;;;;;;;20.10;24.72;102152.81;7317146;19;130001;-60
2022/03/10 10:17:32;;;;;;;5.68;5.07;;;;;;;20.06;25.30;102154.31;7317163;19;129947;-57
2022/03/10 10:20:19;;;;;;;6.50;5.22;;;;;;;20.01;25.26;102150.53;7317146;19;129581;-60
2022/03/10 10:22:48;;;;;;;6.80;4.90;;;;;;;19.97;25.11;102152.88;7318316;19;129360;-60
2022/03/10 10:25:23;;;;;;;6.57;5.10;;;;;;;19.95;25.09;102146.69;7315001;19;130044;-59
2022/03/10 10:27:50;;;;;;;7.05;4.80;;;;;;;19.90;25.41;102149.28;7316521;19;130616;-60
2022/03/10 10:30:16;;;;;;;5.35;4.82;;;;;;;19.86;25.36;102151.66;7314736;19;129407;-57
2022/03/10 10:32:44;;;;;;;5.38;4.88;;;;;;;19.83;25.18;102149.31;7317779;19;129562;-59
2022/03/10 10:35:20;;;;;;;6.30;5.20;;;;;;;19.81;25.28;102140.41;7317287;19;130210;-59
2022/03/10 10:37:52;;;;;;;5.78;4.75;;;;;;;19.78;25.26;102135.28;7316997;19;129950;-59
2022/03/10 10:40:21;;;;;;;7.15;4.93;;;;;;;19.74;25.30;102134.03;7317972;19;128900;-58
2022/03/10 10:42:51;;;;;;;8.13;5.05;;;;;;;19.71;25.60;102131.69;7316760;19;128865;-59
2022/03/10 10:45:36;;;;;;;7.57;5.38;;;;;;;19.67;25.41;102123.84;7316973;19;129621;-59
2022/03/10 10:48:08;;;;;;;5.63;4.47;;;;;;;19.64;25.86;102129.81;7316585;19;129634;-59
2022/03/10 10:50:38;;;;;;;7.28;4.97;;;;;;;19.63;25.68;102127.28;7317165;19;129182;-59
2022/03/10 10:53:06;;;;;;;6.65;5.32;;;;;;;19.61;25.59;102126.66;7317729;19;128929;-58
2022/03/10 10:55:38;;;;;;;6.53;5.30;;;;;;;19.57;25.79;102115.13;7317238;19;129622;-59
2022/03/10 10:58:09;;;;;;;7.18;5.47;;;;;;;19.55;25.94;102120.06;7317578;19;130110;-58
2022/03/10 11:00:45;;;;;;;6.10;5.07;;;;;;;19.54;25.71;102121.16;7317341;19;129535;-56
2022/03/10 11:03:38;;;;;;;7.32;5.55;;;;;;;19.51;25.69;102111.31;7316000;19;129675;-57
2022/03/10 11:06:05;;;;;;;6.93;5.43;;;;;;;19.50;25.73;102117.09;7314667;19;132283;-58
2022/03/10 11:08:32;;;;;;;7.05;5.00;;;;;;;19.48;25.97;102102.59;7315620;19;129840;-57
2022/03/10 11:10:59;;;;;;;6.13;5.15;;;;;;;19.46;25.75;102105.59;7314880;19;129264;-58
2022/03/10 11:13:28;;;;;;;7.50;5.13;;;;;;;19.44;25.76;102099.41;7314619;19;129149;-59
2022/03/10 11:15:57;;;;;;;7.00;5.40;;;;;;;19.43;25.88;102094.94;7315118;19;129521;-57
2022/03/10 11:18:26;;;;;;;7.07;5.25;;;;;;;19.42;26.01;102097.94;7315694;19;129842;-56
2022/03/10 11:21:06;;;;;;;8.55;5.28;;;;;;;19.42;25.80;102089.63;7313894;19;128945;-58
2022/03/10 11:23:59;;;;;;;6.38;4.90;;;;;;;19.39;25.77;102085.34;7315178;19;129499;-58
2022/03/10 11:26:36;;;;;;;8.63;5.05;;;;;;;19.37;25.73;102085.59;7312423;19;129589;-59